createdAt,value
2022-08-23T00:00:47.550Z,81.21
2022-08-23T00:01:45.562Z,80.80
2022-08-23T00:02:45.636Z,80.97
2022-08-23T00:03:45.523Z,80.50
2022-08-23T00:04:55.818Z,79.66
2022-08-23T00:05:46.492Z,81.27
2022-08-23T00:06:45.518Z,80.80
2022-08-23T00:07:45.501Z,81.61
2022-08-23T00:08:48.749Z,80.87
2022-08-23T00:09:45.458Z,81.47
2022-08-23T00:10:46.450Z,81.51
2022-08-23T00:11:45.507Z,81.30
2022-08-23T00:12:45.444Z,81.47
2022-08-23T00:13:47.486Z,80.70
2022-08-23T00:14:45.513Z,80.70
2022-08-23T00:15:45.415Z,82.31
2022-08-23T00:16:45.439Z,82.42
2022-08-23T00:17:45.402Z,82.51
2022-08-23T00:18:48.981Z,82.11
2022-08-23T00:19:45.381Z,83.52
2022-08-23T00:20:45.380Z,83.16
2022-08-23T00:21:45.390Z,83.76
2022-08-23T00:22:45.359Z,83.26
2022-08-23T00:23:45.346Z,82.90
2022-08-23T00:24:45.336Z,83.30
2022-08-23T00:25:45.338Z,83.10
2022-08-23T00:26:45.355Z,83.10
2022-08-23T00:27:45.309Z,83.20
2022-08-23T00:28:45.299Z,82.79
2022-08-23T00:29:45.294Z,82.93
2022-08-23T00:30:45.278Z,82.64
2022-08-23T00:31:45.308Z,82.73
2022-08-23T00:32:45.274Z,83.34
2022-08-23T00:33:45.258Z,83.24
2022-08-23T00:34:45.244Z,83.14
2022-08-23T00:35:45.236Z,84.15
2022-08-23T00:36:45.264Z,84.25
2022-08-23T00:37:45.219Z,84.15
2022-08-23T00:38:46.212Z,84.05
2022-08-23T00:39:45.236Z,83.84
2022-08-23T00:40:45.219Z,83.95
2022-08-23T00:41:45.192Z,83.24
2022-08-23T00:42:45.222Z,82.84
2022-08-23T00:43:45.193Z,83.14
2022-08-23T00:44:45.174Z,83.34
2022-08-23T00:45:45.159Z,83.84
2022-08-23T00:46:45.160Z,83.34
2022-08-23T00:47:45.182Z,83.14
2022-08-23T00:48:45.137Z,82.93
2022-08-23T00:49:45.130Z,83.34
2022-08-23T00:50:45.121Z,83.14
2022-08-23T00:51:52.548Z,83.54
2022-08-23T00:52:46.127Z,83.14
2022-08-23T00:53:45.094Z,83.40
2022-08-23T00:54:45.088Z,83.50
2022-08-23T00:55:45.076Z,83.40
2022-08-23T00:56:45.069Z,83.24
2022-08-23T00:57:45.095Z,84.05
2022-08-23T00:58:45.051Z,83.95
2022-08-23T00:59:45.056Z,83.84
2022-08-23T01:01:07.881Z,84.65
2022-08-23T01:01:46.088Z,84.25
2022-08-23T01:02:45.052Z,84.55
2022-08-23T01:03:45.024Z,84.15
2022-08-23T01:04:45.002Z,85.16
2022-08-23T01:05:45.010Z,85.16
2022-08-23T01:06:44.983Z,85.46
2022-08-23T01:07:45.006Z,85.66
2022-08-23T01:08:44.968Z,86.07
2022-08-23T01:09:44.964Z,85.25
2022-08-23T01:10:44.952Z,85.36
2022-08-23T01:11:44.939Z,85.76
2022-08-23T01:12:44.965Z,85.25
2022-08-23T01:13:44.934Z,86.47
2022-08-23T01:14:44.914Z,86.16
2022-08-23T01:15:44.907Z,86.00
2022-08-23T01:16:44.906Z,85.80
2022-08-23T01:17:44.922Z,86.51
2022-08-23T01:18:44.881Z,86.10
2022-08-23T01:19:44.874Z,86.51
2022-08-23T01:20:44.874Z,86.21
2022-08-23T01:21:44.854Z,87.66
2022-08-23T01:22:44.880Z,87.36
2022-08-23T01:23:44.837Z,87.76
2022-08-23T01:24:59.609Z,87.76
2022-08-23T01:25:45.830Z,87.76
2022-08-23T01:26:44.824Z,87.86
2022-08-23T01:27:44.844Z,87.52
2022-08-23T01:28:45.829Z,87.52
2022-08-23T01:29:44.789Z,87.12
2022-08-23T01:30:44.786Z,87.15
2022-08-23T01:31:44.779Z,86.65
2022-08-23T01:32:44.805Z,87.05
2022-08-23T01:33:44.759Z,87.86
2022-08-23T01:34:51.663Z,87.86
2022-08-23T01:35:45.748Z,87.86
2022-08-23T01:36:44.736Z,87.15
2022-08-23T01:37:44.755Z,87.36
2022-08-23T01:38:44.715Z,86.95
2022-08-23T01:39:44.729Z,86.90
2022-08-23T01:40:45.706Z,86.95
2022-08-23T01:41:44.700Z,86.99
2022-08-23T01:42:44.710Z,87.70
2022-08-23T01:43:44.672Z,86.69
2022-08-23T01:44:44.683Z,87.90
2022-08-23T01:45:44.658Z,87.90
2022-08-23T01:46:44.653Z,88.10
2022-08-23T01:47:44.669Z,87.84
2022-08-23T01:48:44.634Z,88.10
2022-08-23T01:49:44.623Z,88.04
2022-08-23T01:50:44.618Z,88.25
2022-08-23T01:51:44.609Z,87.64
2022-08-23T01:52:46.751Z,88.75
2022-08-23T01:53:44.593Z,88.45
2022-08-23T01:54:44.598Z,88.65
2022-08-23T01:55:44.601Z,89.61
2022-08-23T01:56:44.575Z,89.50
2022-08-23T01:57:45.498Z,89.61
2022-08-23T01:58:44.587Z,89.81
2022-08-23T01:59:44.538Z,89.45
2022-08-23T02:00:44.554Z,89.65
2022-08-23T02:01:44.573Z,90.01
2022-08-23T02:02:44.514Z,89.91
2022-08-23T02:03:44.533Z,90.41
2022-08-23T02:04:44.494Z,90.21
2022-08-23T02:05:44.533Z,89.30
2022-08-23T02:06:44.476Z,88.79
2022-08-23T02:07:44.470Z,89.14
2022-08-23T02:08:44.492Z,90.25
2022-08-23T02:09:44.454Z,89.85
2022-08-23T02:10:44.448Z,90.16
2022-08-23T02:11:44.446Z,90.21
2022-08-23T02:12:44.431Z,89.65
2022-08-23T02:13:44.451Z,89.75
2022-08-23T02:14:44.418Z,89.14
2022-08-23T02:15:44.407Z,89.45
2022-08-23T02:16:56.528Z,90.25
2022-08-23T02:17:45.383Z,90.36
2022-08-23T02:18:44.435Z,90.16
2022-08-23T02:19:44.389Z,89.75
2022-08-23T02:20:44.363Z,89.54
2022-08-23T02:21:44.381Z,90.25
2022-08-23T02:22:44.349Z,90.25
2022-08-23T02:23:44.361Z,90.05
2022-08-23T02:24:44.329Z,89.79
2022-08-23T02:25:44.337Z,89.99
2022-08-23T02:26:46.418Z,89.69
2022-08-23T02:27:44.413Z,90.40
2022-08-23T02:28:44.333Z,90.50
2022-08-23T02:29:44.286Z,90.60
2022-08-23T02:30:44.294Z,91.20
2022-08-23T02:31:44.275Z,91.71
2022-08-23T02:32:44.252Z,91.20
2022-08-23T02:34:38.698Z,91.51
2022-08-23T02:34:44.290Z,91.82
2022-08-23T02:35:45.297Z,91.35
2022-08-23T02:36:44.322Z,91.00
2022-08-23T02:37:44.265Z,91.55
2022-08-23T02:38:44.293Z,91.35
2022-08-23T02:39:44.338Z,90.75
2022-08-23T02:40:44.257Z,91.46
2022-08-23T02:41:44.246Z,91.35
2022-08-23T02:42:44.224Z,91.35
2022-08-23T02:43:44.242Z,92.16
2022-08-23T02:44:44.206Z,92.10
2022-08-23T02:45:44.197Z,92.10
2022-08-23T02:46:44.191Z,93.12
2022-08-23T02:47:44.195Z,92.61
2022-08-23T02:48:44.226Z,93.22
2022-08-23T02:49:44.170Z,92.71
2022-08-23T02:50:44.153Z,92.21
2022-08-23T02:51:44.144Z,92.10
2022-08-23T02:52:44.130Z,92.00
2022-08-23T02:53:44.160Z,92.00
2022-08-23T02:54:44.123Z,91.80
2022-08-23T02:55:44.117Z,91.60
2022-08-23T02:56:44.108Z,92.91
2022-08-23T02:57:44.110Z,93.37
2022-08-23T02:58:44.117Z,94.03
2022-08-23T02:59:44.074Z,93.67
2022-08-23T03:00:44.069Z,93.83
2022-08-23T03:01:44.056Z,93.97
2022-08-23T03:02:44.098Z,93.87
2022-08-23T03:03:45.074Z,94.07
2022-08-23T03:04:44.043Z,93.77
2022-08-23T03:05:44.031Z,94.27
2022-08-23T03:06:44.028Z,94.89
2022-08-23T03:07:44.006Z,94.18
2022-08-23T03:08:44.042Z,94.58
2022-08-23T03:09:44.001Z,94.58
2022-08-23T03:10:43.987Z,94.48
2022-08-23T03:11:43.983Z,94.48
2022-08-23T03:12:43.976Z,94.48
2022-08-23T03:13:44.001Z,94.38
2022-08-23T03:14:43.953Z,93.52
2022-08-23T03:15:43.942Z,94.64
2022-08-23T03:16:43.933Z,94.48
2022-08-23T03:17:43.926Z,94.68
2022-08-23T03:18:43.963Z,94.78
2022-08-23T03:19:43.919Z,95.29
2022-08-23T03:20:43.907Z,94.89
2022-08-23T03:21:43.903Z,94.58
2022-08-23T03:22:48.442Z,94.68
2022-08-23T03:23:44.901Z,93.97
2022-08-23T03:24:43.868Z,94.64
2022-08-23T03:25:43.862Z,94.43
2022-08-23T03:26:43.856Z,94.43
2022-08-23T03:27:44.651Z,94.23
2022-08-23T03:28:43.882Z,93.42
2022-08-23T03:29:43.821Z,94.03
2022-08-23T03:30:44.801Z,93.73
2022-08-23T03:31:43.769Z,93.73
2022-08-23T03:32:49.085Z,93.88
2022-08-23T03:33:44.771Z,93.58
2022-08-23T03:34:43.729Z,93.78
2022-08-23T03:35:44.724Z,93.38
2022-08-23T03:36:43.715Z,92.72
2022-08-23T03:37:43.708Z,92.22
2022-08-23T03:38:43.700Z,93.03
2022-08-23T03:39:43.771Z,93.03
2022-08-23T03:40:43.680Z,91.92
2022-08-23T03:41:43.680Z,91.31
2022-08-23T03:42:43.668Z,91.82
2022-08-23T03:43:43.659Z,92.02
2022-08-23T03:44:43.680Z,92.12
2022-08-23T03:45:43.639Z,92.22
2022-08-23T03:46:43.636Z,91.92
2022-08-23T03:47:43.628Z,92.02
2022-08-23T03:48:43.622Z,92.22
2022-08-23T03:49:43.632Z,92.22
2022-08-23T03:50:43.597Z,92.22
2022-08-23T03:51:43.589Z,91.92
2022-08-23T03:52:43.579Z,91.71
2022-08-23T03:53:43.564Z,91.97
2022-08-23T03:54:43.603Z,91.57
2022-08-23T03:55:43.555Z,91.77
2022-08-23T03:56:43.554Z,91.77
2022-08-23T03:57:43.533Z,91.57
2022-08-23T03:58:43.539Z,92.18
2022-08-23T03:59:43.552Z,91.77
2022-08-23T04:00:43.506Z,91.87
2022-08-23T04:01:43.549Z,91.97
2022-08-23T04:02:43.505Z,91.77
2022-08-23T04:03:43.494Z,91.57
2022-08-23T04:04:43.514Z,91.87
2022-08-23T04:05:43.473Z,92.28
2022-08-23T04:06:43.464Z,91.57
2022-08-23T04:07:43.450Z,92.08
2022-08-23T04:08:44.448Z,92.08
2022-08-23T04:09:43.467Z,92.28
2022-08-23T04:10:43.425Z,91.97
2022-08-23T04:11:43.431Z,91.87
2022-08-23T04:12:43.412Z,92.08
2022-08-23T04:13:43.417Z,92.18
2022-08-23T04:14:43.433Z,91.97
2022-08-23T04:15:43.572Z,91.47
2022-08-23T04:16:44.392Z,91.97
2022-08-23T04:17:43.368Z,91.67
2022-08-23T04:18:43.417Z,91.83
2022-08-23T04:19:43.381Z,91.83
2022-08-23T04:20:43.342Z,91.73
2022-08-23T04:21:43.330Z,91.73
2022-08-23T04:22:43.335Z,91.27
2022-08-23T04:23:43.322Z,91.27
2022-08-23T04:24:43.339Z,92.68
2022-08-23T04:25:43.303Z,92.79
2022-08-23T04:26:43.516Z,92.99
2022-08-23T04:27:43.286Z,92.99
2022-08-23T04:28:43.270Z,92.64
2022-08-23T04:29:43.290Z,92.99
2022-08-23T04:30:44.255Z,92.94
2022-08-23T04:31:43.255Z,92.03
2022-08-23T04:32:43.241Z,91.32
2022-08-23T04:33:43.239Z,92.03
2022-08-23T04:34:45.665Z,91.63
2022-08-23T04:35:44.222Z,91.53
2022-08-23T04:36:50.050Z,91.18
2022-08-23T04:37:44.206Z,91.08
2022-08-23T04:38:43.188Z,90.78
2022-08-23T04:39:43.388Z,90.67
2022-08-23T04:40:44.169Z,90.58
2022-08-23T04:41:43.167Z,90.83
2022-08-23T04:42:43.164Z,90.63
2022-08-23T04:43:43.148Z,90.33
2022-08-23T04:44:43.171Z,90.23
2022-08-23T04:45:43.140Z,90.69
2022-08-23T04:46:43.124Z,89.37
2022-08-23T04:47:43.123Z,89.28
2022-08-23T04:48:43.106Z,90.03
2022-08-23T04:49:43.128Z,90.08
2022-08-23T04:50:43.090Z,90.08
2022-08-23T04:51:43.079Z,89.58
2022-08-23T04:52:44.081Z,89.43
2022-08-23T04:53:43.065Z,88.18
2022-08-23T04:54:43.078Z,87.54
2022-08-23T04:55:43.054Z,86.18
2022-08-23T04:56:43.035Z,85.44
2022-08-23T04:57:43.026Z,85.10
2022-08-23T04:58:43.025Z,83.48
2022-08-23T04:59:43.049Z,83.45
2022-08-23T05:00:43.047Z,83.75
2022-08-23T05:01:43.017Z,82.90
2022-08-23T05:02:43.388Z,82.40
2022-08-23T05:03:42.975Z,82.36
2022-08-23T05:04:43.014Z,81.05
2022-08-23T05:05:42.975Z,81.01
2022-08-23T05:06:42.951Z,81.32
2022-08-23T05:07:43.245Z,80.04
2022-08-23T05:08:43.951Z,78.42
2022-08-23T05:09:42.933Z,78.35
2022-08-23T05:10:42.954Z,76.81
2022-08-23T05:11:42.921Z,76.04
2022-08-23T05:12:42.905Z,76.15
2022-08-23T05:13:42.896Z,75.84
2022-08-23T05:14:44.338Z,76.75
2022-08-23T05:15:43.906Z,77.65
2022-08-23T05:16:42.869Z,76.65
2022-08-23T05:17:42.862Z,75.67
2022-08-23T05:18:42.858Z,75.57
2022-08-23T05:19:44.327Z,74.73
2022-08-23T05:20:42.874Z,74.43
2022-08-23T05:21:42.836Z,73.06
2022-08-23T05:22:42.827Z,72.53
2022-08-23T05:23:42.812Z,71.29
2022-08-23T05:24:42.816Z,71.03
2022-08-23T05:25:42.839Z,71.23
2022-08-23T05:26:42.804Z,71.92
2022-08-23T05:27:42.801Z,71.92
2022-08-23T05:28:42.778Z,71.39
2022-08-23T05:29:42.765Z,71.06
2022-08-23T05:30:42.788Z,70.42
2022-08-23T05:31:43.763Z,69.89
2022-08-23T05:32:42.735Z,69.79
2022-08-23T05:33:42.732Z,69.99
2022-08-23T05:34:42.722Z,69.99
2022-08-23T05:35:42.737Z,70.49
2022-08-23T05:36:48.303Z,70.09
2022-08-23T05:37:43.698Z,71.03
2022-08-23T05:38:42.691Z,71.26
2022-08-23T05:39:42.711Z,72.09
2022-08-23T05:40:42.712Z,72.06
2022-08-23T05:41:42.669Z,71.52
2022-08-23T05:42:42.661Z,71.06
2022-08-23T05:43:42.647Z,69.76
2022-08-23T05:44:42.636Z,69.32
2022-08-23T05:45:42.660Z,69.43
2022-08-23T05:46:42.922Z,68.86
2022-08-23T05:47:42.620Z,66.94
2022-08-23T05:48:42.611Z,66.20
2022-08-23T05:49:42.599Z,66.91
2022-08-23T05:50:42.625Z,66.94
2022-08-23T05:51:42.588Z,67.13
2022-08-23T05:52:42.577Z,67.63
2022-08-23T05:53:42.565Z,66.83
2022-08-23T05:54:42.560Z,67.77
2022-08-23T05:55:42.585Z,66.94
2022-08-23T05:56:42.551Z,67.36
2022-08-23T05:57:42.532Z,68.70
2022-08-23T05:58:42.526Z,69.36
2022-08-23T05:59:42.516Z,70.23
2022-08-23T06:00:42.590Z,71.26
2022-08-23T06:01:42.510Z,71.49
2022-08-23T06:02:42.491Z,72.29
2022-08-23T06:03:42.531Z,72.72
2022-08-23T06:04:42.475Z,73.56
2022-08-23T06:05:42.487Z,73.36
2022-08-23T06:06:42.451Z,74.60
2022-08-23T06:07:42.447Z,75.00
2022-08-23T06:08:46.347Z,76.14
2022-08-23T06:09:42.428Z,76.04
2022-08-23T06:10:42.642Z,75.74
2022-08-23T06:11:43.409Z,76.10
2022-08-23T06:12:42.396Z,75.84
2022-08-23T06:13:43.437Z,76.24
2022-08-23T06:14:42.392Z,76.17
2022-08-23T06:15:42.403Z,76.47
2022-08-23T06:16:42.368Z,76.47
2022-08-23T06:17:42.367Z,75.97
2022-08-23T06:18:42.351Z,76.17
2022-08-23T06:19:42.337Z,75.54
2022-08-23T06:20:42.458Z,76.14
2022-08-23T06:21:42.329Z,75.54
2022-08-23T06:22:42.338Z,75.63
2022-08-23T06:23:42.307Z,75.43
2022-08-23T06:24:42.307Z,75.07
2022-08-23T06:25:43.155Z,75.04
2022-08-23T06:26:42.284Z,75.43
2022-08-23T06:27:42.288Z,73.66
2022-08-23T06:28:51.132Z,71.66
2022-08-23T06:29:43.258Z,70.59
2022-08-23T06:30:42.363Z,69.53
2022-08-23T06:31:42.242Z,66.83
2022-08-23T06:32:42.297Z,66.11
2022-08-23T06:33:42.297Z,65.51
2022-08-23T06:34:43.213Z,65.08
2022-08-23T06:35:42.240Z,63.95
2022-08-23T06:36:42.198Z,64.12
2022-08-23T06:37:42.198Z,61.98
2022-08-23T06:38:42.177Z,61.45
2022-08-23T06:39:42.251Z,61.69
2022-08-23T06:40:42.173Z,60.80
2022-08-23T06:41:42.187Z,60.07
2022-08-23T06:42:42.148Z,59.35
2022-08-23T06:43:42.145Z,60.63
2022-08-23T06:44:42.145Z,60.93
2022-08-23T06:45:42.151Z,59.55
2022-08-23T06:46:43.155Z,59.05
2022-08-23T06:47:42.109Z,58.73
2022-08-23T06:48:42.102Z,59.42
2022-08-23T06:49:42.099Z,58.80
2022-08-23T06:50:43.110Z,58.05
2022-08-23T06:51:42.085Z,57.62
2022-08-23T06:52:42.068Z,56.54
2022-08-23T06:53:42.062Z,57.03
2022-08-23T06:54:42.047Z,56.12
2022-08-23T06:55:42.098Z,55.79
2022-08-23T06:56:42.033Z,57.16
2022-08-23T06:57:42.023Z,56.17
2022-08-23T06:58:42.020Z,56.74
2022-08-23T06:59:42.009Z,56.09
2022-08-23T07:00:42.082Z,55.00
2022-08-23T07:01:46.579Z,54.41
2022-08-23T07:02:44.013Z,54.58
2022-08-23T07:03:43.019Z,54.06
2022-08-23T07:04:41.975Z,54.06
2022-08-23T07:05:42.027Z,53.71
2022-08-23T07:06:41.989Z,54.01
2022-08-23T07:07:44.295Z,53.91
2022-08-23T07:08:41.949Z,53.22
2022-08-23T07:09:41.952Z,53.09
2022-08-23T07:10:41.975Z,52.43
2022-08-23T07:11:41.959Z,52.83
2022-08-23T07:12:41.935Z,52.26
2022-08-23T07:13:48.414Z,51.57
2022-08-23T07:14:41.898Z,50.78
2022-08-23T07:15:41.898Z,51.35
2022-08-23T07:16:41.914Z,51.05
2022-08-23T07:17:41.877Z,50.46
2022-08-23T07:18:41.875Z,51.28
2022-08-23T07:19:41.863Z,51.10
2022-08-23T07:20:41.862Z,50.98
2022-08-23T07:21:41.880Z,52.43
2022-08-23T07:22:41.841Z,51.64
2022-08-23T07:23:44.866Z,49.60
2022-08-23T07:24:42.832Z,48.50
2022-08-23T07:25:41.813Z,47.42
2022-08-23T07:26:41.837Z,49.26
2022-08-23T07:27:41.803Z,49.16
2022-08-23T07:28:41.790Z,50.76
2022-08-23T07:29:41.780Z,49.85
2022-08-23T07:30:45.117Z,49.23
2022-08-23T07:31:42.843Z,48.23
2022-08-23T07:32:41.759Z,48.03
2022-08-23T07:33:41.756Z,48.94
2022-08-23T07:34:41.747Z,49.23
2022-08-23T07:35:41.738Z,50.34
2022-08-23T07:36:41.771Z,50.93
2022-08-23T07:37:41.723Z,52.51
2022-08-23T07:38:42.754Z,53.08
2022-08-23T07:39:41.726Z,51.30
2022-08-23T07:40:41.762Z,49.08
2022-08-23T07:41:41.730Z,49.06
2022-08-23T07:42:41.678Z,49.01
2022-08-23T07:43:41.670Z,47.99
2022-08-23T07:44:41.685Z,47.45
2022-08-23T07:45:41.658Z,46.95
2022-08-23T07:46:41.763Z,46.17
2022-08-23T07:47:45.428Z,46.00
2022-08-23T07:48:53.897Z,47.81
2022-08-23T07:49:43.632Z,48.23
2022-08-23T07:50:54.741Z,49.08
2022-08-23T07:51:42.639Z,47.67
2022-08-23T07:52:41.616Z,47.96
2022-08-23T07:53:44.210Z,48.99
2022-08-23T07:54:48.275Z,47.83
2022-08-23T07:55:42.588Z,47.89
2022-08-23T07:56:41.608Z,46.27
2022-08-23T07:57:41.571Z,46.91
2022-08-23T07:58:41.563Z,46.59
2022-08-23T07:59:41.560Z,47.86
2022-08-23T08:00:41.561Z,46.56
2022-08-23T08:01:41.612Z,45.73
2022-08-23T08:02:41.599Z,45.72
2022-08-23T08:03:41.537Z,45.10
2022-08-23T08:04:41.520Z,44.83
2022-08-23T08:05:41.517Z,45.03
2022-08-23T08:06:41.559Z,44.40
2022-08-23T08:07:41.520Z,44.10
2022-08-23T08:08:41.502Z,42.99
2022-08-23T08:09:41.495Z,41.41
2022-08-23T08:10:41.482Z,42.48
2022-08-23T08:11:41.509Z,41.60
2022-08-23T08:12:41.488Z,42.77
2022-08-23T08:13:41.484Z,42.75
2022-08-23T08:14:41.474Z,41.27
2022-08-23T08:15:41.480Z,41.28
2022-08-23T08:16:41.439Z,41.89
2022-08-23T08:17:41.464Z,42.58
2022-08-23T08:18:41.424Z,41.96
2022-08-23T08:19:41.413Z,43.15
2022-08-23T08:20:41.410Z,43.58
2022-08-23T08:21:42.022Z,43.60
2022-08-23T08:22:45.418Z,43.88
2022-08-23T08:23:43.383Z,43.52
2022-08-23T08:24:41.380Z,41.99
2022-08-23T08:25:41.370Z,42.16
2022-08-23T08:26:41.362Z,41.67
2022-08-23T08:27:41.385Z,40.39
2022-08-23T08:28:41.350Z,39.82
2022-08-23T08:29:41.347Z,40.11
2022-08-23T08:30:41.348Z,40.33
2022-08-23T08:31:41.387Z,42.85
2022-08-23T08:32:47.209Z,41.36
2022-08-23T08:33:43.325Z,41.42
2022-08-23T08:34:41.336Z,42.15
2022-08-23T08:35:41.309Z,41.44
2022-08-23T08:36:41.309Z,41.70
2022-08-23T08:37:41.323Z,41.31
2022-08-23T08:38:47.986Z,41.58
2022-08-23T08:39:42.369Z,43.37
2022-08-23T08:40:41.265Z,43.99
2022-08-23T08:41:41.258Z,43.76
2022-08-23T08:42:41.286Z,42.71
2022-08-23T08:43:41.235Z,41.80
2022-08-23T08:44:41.292Z,41.07
2022-08-23T08:45:41.242Z,40.62
2022-08-23T08:46:42.285Z,41.99
2022-08-23T08:47:41.249Z,42.35
2022-08-23T08:48:41.214Z,42.05
2022-08-23T08:49:41.207Z,42.09
2022-08-23T08:50:41.199Z,41.87
2022-08-23T08:51:41.202Z,41.36
2022-08-23T08:52:41.230Z,41.75
2022-08-23T08:53:41.186Z,41.02
2022-08-23T08:54:43.889Z,42.64
2022-08-23T08:55:42.164Z,43.71
2022-08-23T08:56:41.158Z,42.19
2022-08-23T08:57:41.184Z,43.99
2022-08-23T08:58:41.140Z,42.97
2022-08-23T08:59:41.148Z,42.58
2022-08-23T09:00:41.125Z,42.17
2022-08-23T09:01:41.158Z,44.31
2022-08-23T09:02:41.204Z,43.58
2022-08-23T09:03:43.101Z,42.54
2022-08-23T09:04:42.107Z,40.23
2022-08-23T09:05:41.113Z,39.82
2022-08-23T09:06:41.096Z,40.58
2022-08-23T09:07:41.115Z,40.11
2022-08-23T09:08:41.078Z,40.62
2022-08-23T09:09:41.081Z,40.50
2022-08-23T09:10:41.065Z,39.88
2022-08-23T09:11:41.080Z,39.08
2022-08-23T09:12:41.084Z,40.21
2022-08-23T09:13:45.464Z,41.97
2022-08-23T09:14:43.042Z,43.58
2022-08-23T09:15:41.093Z,42.58
2022-08-23T09:16:41.189Z,42.85
2022-08-23T09:17:41.052Z,40.94
2022-08-23T09:18:41.031Z,41.80
2022-08-23T09:19:41.041Z,40.94
2022-08-23T09:20:41.004Z,41.70
2022-08-23T09:21:41.019Z,40.53
2022-08-23T09:22:41.517Z,41.49
2022-08-23T09:23:40.993Z,41.80
2022-08-23T09:24:40.977Z,42.85
2022-08-23T09:25:58.802Z,42.38
2022-08-23T09:26:42.066Z,41.54
2022-08-23T09:27:40.994Z,40.74
2022-08-23T09:28:40.953Z,40.55
2022-08-23T09:29:47.881Z,40.39
2022-08-23T09:30:41.947Z,40.23
2022-08-23T09:31:41.009Z,41.88
2022-08-23T09:32:40.962Z,41.41
2022-08-23T09:33:40.919Z,41.99
2022-08-23T09:34:40.908Z,41.96
2022-08-23T09:35:40.896Z,41.74
2022-08-23T09:36:40.906Z,40.33
2022-08-23T09:37:40.909Z,41.44
2022-08-23T09:38:43.357Z,41.97
2022-08-23T09:39:41.934Z,41.82
2022-08-23T09:40:41.405Z,40.43
2022-08-23T09:41:40.869Z,40.78
2022-08-23T09:42:40.876Z,40.70
2022-08-23T09:43:40.886Z,40.64
2022-08-23T09:44:41.196Z,41.09
2022-08-23T09:45:40.841Z,40.27
2022-08-23T09:46:40.901Z,39.20
2022-08-23T09:47:44.732Z,39.51
2022-08-23T09:48:40.862Z,39.22
2022-08-23T09:49:40.817Z,39.08
2022-08-23T09:50:40.836Z,39.43
2022-08-23T09:51:40.840Z,40.94
2022-08-23T09:52:40.789Z,40.17
2022-08-23T09:53:41.147Z,41.09
2022-08-23T09:54:44.219Z,40.58
2022-08-23T09:55:41.767Z,41.41
2022-08-23T09:56:40.765Z,41.80
2022-08-23T09:57:40.760Z,41.74
2022-08-23T09:58:40.781Z,41.82
2022-08-23T09:59:40.746Z,39.39
2022-08-23T10:00:40.739Z,39.92
2022-08-23T10:01:40.784Z,39.14
2022-08-23T10:02:40.726Z,40.58
2022-08-23T10:03:40.749Z,39.06
2022-08-23T10:04:40.788Z,39.75
2022-08-23T10:05:40.713Z,38.65
2022-08-23T10:06:40.708Z,39.08
2022-08-23T10:07:42.968Z,38.87
2022-08-23T10:08:43.229Z,37.99
2022-08-23T10:09:41.681Z,37.48
2022-08-23T10:10:40.680Z,37.91
2022-08-23T10:11:40.672Z,38.43
2022-08-23T10:12:40.679Z,38.09
2022-08-23T10:13:40.703Z,38.12
2022-08-23T10:14:40.670Z,39.80
2022-08-23T10:15:40.684Z,38.18
2022-08-23T10:16:40.635Z,39.31
2022-08-23T10:17:40.632Z,38.71
2022-08-23T10:18:40.670Z,39.51
2022-08-23T10:19:40.617Z,39.29
2022-08-23T10:20:40.615Z,38.04
2022-08-23T10:21:40.603Z,38.06
2022-08-23T10:22:40.594Z,38.01
2022-08-23T10:23:40.624Z,38.63
2022-08-23T10:24:40.587Z,39.22
2022-08-23T10:25:40.580Z,38.87
2022-08-23T10:26:40.574Z,38.26
2022-08-23T10:27:40.565Z,37.45
2022-08-23T10:28:40.599Z,37.54
2022-08-23T10:29:40.550Z,37.46
2022-08-23T10:30:40.563Z,37.91
2022-08-23T10:31:40.545Z,36.53
2022-08-23T10:32:40.542Z,37.05
2022-08-23T10:33:40.527Z,37.52
2022-08-23T10:34:41.560Z,36.37
2022-08-23T10:35:40.515Z,36.99
2022-08-23T10:36:40.509Z,38.02
2022-08-23T10:37:40.510Z,38.49
2022-08-23T10:38:40.501Z,38.22
2022-08-23T10:39:40.548Z,38.30
2022-08-23T10:40:40.489Z,37.32
2022-08-23T10:41:40.485Z,38.30
2022-08-23T10:42:40.478Z,37.48
2022-08-23T10:43:40.461Z,37.15
2022-08-23T10:44:40.487Z,36.94
2022-08-23T10:45:40.448Z,36.49
2022-08-23T10:46:40.470Z,34.82
2022-08-23T10:47:40.437Z,36.37
2022-08-23T10:48:40.430Z,37.57
2022-08-23T10:49:40.454Z,37.52
2022-08-23T10:50:40.423Z,36.06
2022-08-23T10:51:42.107Z,36.45
2022-08-23T10:52:40.403Z,35.86
2022-08-23T10:53:40.394Z,36.74
2022-08-23T10:54:40.429Z,35.71
2022-08-23T10:55:40.395Z,35.52
2022-08-23T10:56:44.798Z,34.70
2022-08-23T10:57:42.365Z,35.02
2022-08-23T10:58:40.356Z,35.85
2022-08-23T10:59:40.410Z,37.21
2022-08-23T11:00:40.352Z,38.02
2022-08-23T11:01:40.363Z,37.50
2022-08-23T11:02:40.359Z,37.30
2022-08-23T11:03:40.324Z,36.45
2022-08-23T11:04:40.353Z,34.63
2022-08-23T11:05:40.315Z,34.06
2022-08-23T11:06:40.306Z,34.64
2022-08-23T11:07:40.304Z,36.19
2022-08-23T11:08:42.402Z,36.90
2022-08-23T11:09:41.331Z,37.62
2022-08-23T11:10:40.292Z,37.30
2022-08-23T11:13:05.869Z,36.20
2022-08-23T11:14:05.883Z,34.77
2022-08-23T11:15:05.909Z,34.55
2022-08-23T11:16:05.957Z,35.88
2022-08-23T11:17:05.866Z,35.84
2022-08-23T11:18:05.864Z,37.40
2022-08-23T11:19:05.856Z,36.60
2022-08-23T11:20:07.027Z,36.41
2022-08-23T11:21:06.983Z,35.73
2022-08-23T11:22:06.990Z,34.14
2022-08-23T11:23:06.977Z,32.99
2022-08-23T11:24:06.971Z,33.07
2022-08-23T11:25:06.992Z,33.11
2022-08-23T11:26:06.953Z,34.40
2022-08-23T11:27:07.501Z,34.94
2022-08-23T11:28:06.948Z,34.86
2022-08-23T11:29:06.940Z,36.08
2022-08-23T11:30:06.952Z,34.88
2022-08-23T11:31:06.968Z,34.42
2022-08-23T11:32:06.926Z,33.90
2022-08-23T11:33:06.918Z,32.81
2022-08-23T11:34:06.898Z,33.33
2022-08-23T11:35:06.926Z,34.64
2022-08-23T11:36:06.899Z,34.27
2022-08-23T11:37:06.885Z,34.63
2022-08-23T11:38:07.047Z,34.12
2022-08-23T11:39:06.874Z,34.70
2022-08-23T11:40:06.932Z,34.69
2022-08-23T11:41:09.654Z,35.94
2022-08-23T11:42:06.850Z,37.11
2022-08-23T11:43:06.856Z,36.37
2022-08-23T11:44:06.840Z,35.77
2022-08-23T11:45:06.865Z,35.94
2022-08-23T11:46:06.873Z,35.08
2022-08-23T11:47:06.865Z,35.13
2022-08-23T11:48:06.812Z,35.06
2022-08-23T11:49:06.819Z,34.33
2022-08-23T11:50:06.840Z,33.95
2022-08-23T11:51:06.797Z,34.90
2022-08-23T11:52:06.796Z,33.88
2022-08-23T11:53:06.792Z,33.01
2022-08-23T11:54:06.775Z,33.01
2022-08-23T11:55:06.802Z,32.29
2022-08-23T11:56:06.769Z,32.28
2022-08-23T11:57:06.759Z,32.21
2022-08-23T11:58:06.748Z,33.86
2022-08-23T11:59:08.837Z,34.68
2022-08-23T12:00:06.850Z,34.66
2022-08-23T12:01:06.746Z,34.35
2022-08-23T12:02:06.764Z,34.39
2022-08-23T12:03:06.804Z,34.95
2022-08-23T12:04:06.862Z,35.82
2022-08-23T12:05:06.983Z,35.46
2022-08-23T12:06:06.710Z,35.45
2022-08-23T12:07:06.697Z,35.63
2022-08-23T12:08:06.685Z,35.33
2022-08-23T12:09:06.688Z,35.67
2022-08-23T12:10:06.678Z,33.95
2022-08-23T12:11:06.727Z,33.61
2022-08-23T12:12:06.742Z,32.32
2022-08-23T12:13:08.724Z,32.78
2022-08-23T12:14:06.647Z,34.19
2022-08-23T12:15:06.644Z,34.91
2022-08-23T12:16:06.762Z,34.48
2022-08-23T12:17:07.631Z,33.17
2022-08-23T12:18:06.640Z,32.59
2022-08-23T12:19:06.616Z,32.47
2022-08-23T12:20:06.613Z,32.13
2022-08-23T12:21:07.642Z,31.71
2022-08-23T12:22:06.602Z,32.73
2022-08-23T12:23:06.594Z,33.34
2022-08-23T12:24:06.597Z,33.86
2022-08-23T12:25:06.583Z,33.26
2022-08-23T12:26:06.610Z,33.31
2022-08-23T12:27:06.567Z,34.09
2022-08-23T12:28:06.589Z,35.02
2022-08-23T12:29:06.551Z,36.11
2022-08-23T12:30:06.579Z,35.80
2022-08-23T12:31:08.113Z,35.12
2022-08-23T12:32:07.543Z,35.49
2022-08-23T12:33:06.536Z,34.75
2022-08-23T12:34:06.533Z,36.04
2022-08-23T12:35:06.556Z,34.32
2022-08-23T12:36:15.473Z,33.88
2022-08-23T12:37:09.493Z,33.07
2022-08-23T12:38:07.505Z,32.35
2022-08-23T12:39:06.491Z,31.95
2022-08-23T12:40:06.530Z,32.32
2022-08-23T12:41:06.485Z,32.39
2022-08-23T12:42:06.919Z,31.91
2022-08-23T12:43:06.473Z,31.91
2022-08-23T12:44:06.459Z,32.42
2022-08-23T12:45:06.496Z,32.52
2022-08-23T12:46:06.841Z,32.87
2022-08-23T12:47:06.437Z,31.24
2022-08-23T12:48:06.448Z,32.34
2022-08-23T12:49:06.426Z,33.02
2022-08-23T12:50:06.475Z,33.12
2022-08-23T12:51:06.431Z,32.64
2022-08-23T12:52:06.409Z,32.34
2022-08-23T12:53:06.407Z,32.54
2022-08-23T12:54:06.390Z,33.12